createdAt,value
2023-01-11T00:00:29.140Z,97110.75
2023-01-11T00:03:00.980Z,97110.91
2023-01-11T00:05:27.518Z,97114.22
2023-01-11T00:07:54.168Z,97115.97
2023-01-11T00:10:20.865Z,97108.53
2023-01-11T00:12:47.545Z,97106.09
2023-01-11T00:15:14.679Z,97106.09
2023-01-11T00:17:41.796Z,97109.41
2023-01-11T00:20:10.448Z,97092.13
2023-01-11T00:22:37.948Z,97104.53
2023-01-11T00:25:05.431Z,97094.38
2023-01-11T00:27:31.850Z,97095.16
2023-01-11T00:29:58.228Z,97095.94
2023-01-11T00:32:24.690Z,97088.28
2023-01-11T00:34:51.043Z,97084.28
2023-01-11T00:37:17.442Z,97077.44
2023-01-11T00:39:43.811Z,97071.69
2023-01-11T00:42:30.165Z,97066.00
2023-01-11T00:45:15.420Z,97070.25
2023-01-11T00:48:00.190Z,97063.63
2023-01-11T00:50:37.816Z,97074.94
2023-01-11T00:53:05.450Z,97084.34
2023-01-11T00:55:32.454Z,97075.00
2023-01-11T00:57:59.251Z,97068.03
2023-01-11T01:00:25.773Z,97077.38
2023-01-11T01:02:52.260Z,97075.72
2023-01-11T01:05:19.069Z,97077.66
2023-01-11T01:07:46.313Z,97070.25
2023-01-11T01:10:15.609Z,97068.91
2023-01-11T01:13:00.689Z,97068.59
2023-01-11T01:15:27.503Z,97063.56
2023-01-11T01:17:55.586Z,97061.63
2023-01-11T01:20:23.343Z,97061.66
2023-01-11T01:22:50.433Z,97064.28
2023-01-11T01:25:17.300Z,97057.16
2023-01-11T01:27:43.650Z,97056.28
2023-01-11T01:30:10.566Z,97047.13
2023-01-11T01:32:36.978Z,97048.72
2023-01-11T01:35:03.534Z,97037.78
2023-01-11T01:37:29.977Z,97034.50
2023-01-11T01:39:56.368Z,97030.25
2023-01-11T01:42:24.067Z,97032.66
2023-01-11T01:45:00.911Z,97037.47
2023-01-11T01:47:40.504Z,97040.78
2023-01-11T01:50:12.864Z,97038.06
2023-01-11T01:52:40.725Z,97035.47
2023-01-11T01:55:12.175Z,97031.06
2023-01-11T01:57:43.624Z,97029.25
2023-01-11T02:00:10.889Z,97022.47
2023-01-11T02:02:39.824Z,97033.81
2023-01-11T02:05:08.103Z,97029.34
2023-01-11T02:07:37.920Z,97032.72
2023-01-11T02:10:15.707Z,97023.50
2023-01-11T02:12:50.845Z,97028.88
2023-01-11T02:15:19.590Z,97026.44
2023-01-11T02:17:46.048Z,97027.22
2023-01-11T02:20:28.269Z,97024.78
2023-01-11T02:23:30.484Z,97018.81
2023-01-11T02:26:15.891Z,97021.69
2023-01-11T02:28:56.915Z,97017.53
2023-01-11T02:31:49.749Z,97010.44
2023-01-11T02:34:25.451Z,97005.59
2023-01-11T02:37:38.352Z,97013.03
2023-01-11T02:40:21.537Z,97006.13
2023-01-11T02:43:12.040Z,96993.53
2023-01-11T02:45:41.170Z,96992.72
2023-01-11T02:48:13.488Z,96996.84
2023-01-11T02:50:46.051Z,96987.75
2023-01-11T02:53:31.031Z,96991.13
2023-01-11T02:56:01.351Z,96995.50
2023-01-11T02:58:32.828Z,96994.66
2023-01-11T03:00:59.753Z,96990.34
2023-01-11T03:03:29.662Z,96983.66
2023-01-11T03:06:13.657Z,96987.91
2023-01-11T03:09:05.115Z,96996.19
2023-01-11T03:12:19.696Z,96990.47
2023-01-11T03:15:12.527Z,96982.84
2023-01-11T03:17:47.363Z,96981.91
2023-01-11T03:20:30.662Z,96986.22
2023-01-11T03:23:19.091Z,96976.94
2023-01-11T03:26:02.004Z,96987.66
2023-01-11T03:28:48.433Z,96988.69
2023-01-11T03:31:26.136Z,96993.94
2023-01-11T03:34:15.471Z,96982.91
2023-01-11T03:36:56.836Z,96978.53
2023-01-11T03:39:26.034Z,96971.63
2023-01-11T03:41:57.227Z,96972.41
2023-01-11T03:44:26.212Z,96950.09
2023-01-11T03:47:02.177Z,96944.19
2023-01-11T03:49:36.602Z,96937.34
2023-01-11T03:52:07.145Z,96936.75
2023-01-11T03:54:33.818Z,96931.72
2023-01-11T03:57:08.622Z,96926.75
2023-01-11T03:59:35.045Z,96936.34
2023-01-11T04:02:02.255Z,96925.38
2023-01-11T04:04:28.803Z,96927.28
2023-01-11T04:06:55.374Z,96935.72
2023-01-11T04:09:22.144Z,96934.94
2023-01-11T04:11:48.646Z,96941.75
2023-01-11T04:14:14.997Z,96930.94
2023-01-11T04:16:41.435Z,96929.56
2023-01-11T04:19:07.881Z,96926.78
2023-01-11T04:21:34.294Z,96923.31
2023-01-11T04:24:01.768Z,96926.19
2023-01-11T04:26:28.112Z,96936.91
2023-01-11T04:28:54.634Z,96929.41
2023-01-11T04:31:21.164Z,96936.13
2023-01-11T04:33:47.633Z,96927.69
2023-01-11T04:36:14.412Z,96920.13
2023-01-11T04:38:40.951Z,96922.72
2023-01-11T04:41:26.269Z,96924.38
2023-01-11T04:43:56.439Z,96914.16
2023-01-11T04:46:23.877Z,96921.47
2023-01-11T04:48:50.634Z,96921.66
2023-01-11T04:51:17.380Z,96918.34
2023-01-11T04:53:43.804Z,96921.00
2023-01-11T04:56:12.043Z,96922.72
2023-01-11T04:58:38.464Z,96906.13
2023-01-11T05:01:14.271Z,96908.19
2023-01-11T05:03:40.788Z,96904.00
2023-01-11T05:06:07.710Z,96909.16
2023-01-11T05:08:35.153Z,96902.53
2023-01-11T05:11:04.972Z,96907.69
2023-01-11T05:13:43.197Z,96901.22
2023-01-11T05:16:23.894Z,96898.03
2023-01-11T05:18:56.116Z,96893.97
2023-01-11T05:21:24.720Z,96893.25
2023-01-11T05:23:52.136Z,96899.16
2023-01-11T05:26:24.521Z,96894.22
2023-01-11T05:28:52.051Z,96901.72
2023-01-11T05:31:19.093Z,96905.19
2023-01-11T05:33:45.871Z,96902.75
2023-01-11T05:36:14.601Z,96905.38
2023-01-11T05:38:41.224Z,96902.78
2023-01-11T05:41:09.716Z,96902.78
2023-01-11T05:43:56.209Z,96893.97
2023-01-11T05:46:23.360Z,96895.88
2023-01-11T05:48:50.005Z,96898.94
2023-01-11T05:51:17.873Z,96894.13
2023-01-11T05:53:44.271Z,96901.72
2023-01-11T05:56:10.788Z,96904.25
2023-01-11T05:58:37.247Z,96899.00
2023-01-11T06:01:03.941Z,96902.47
2023-01-11T06:03:30.399Z,96899.88
2023-01-11T06:05:59.083Z,96901.34
2023-01-11T06:08:26.089Z,96895.84
2023-01-11T06:10:56.573Z,96897.69
2023-01-11T06:13:27.841Z,96891.25
2023-01-11T06:16:09.869Z,96883.75
2023-01-11T06:18:38.513Z,96887.25
2023-01-11T06:21:05.787Z,96876.84
2023-01-11T06:23:34.231Z,96887.34
2023-01-11T06:26:02.836Z,96881.44
2023-01-11T06:28:29.550Z,96879.00
2023-01-11T06:30:57.642Z,96880.66
2023-01-11T06:33:25.671Z,96870.66
2023-01-11T06:35:52.590Z,96858.91
2023-01-11T06:38:21.819Z,96863.94
2023-01-11T06:41:08.399Z,96863.28
2023-01-11T06:43:37.250Z,96858.03
2023-01-11T06:46:04.135Z,96853.84
2023-01-11T06:48:30.619Z,96843.50
2023-01-11T06:50:58.426Z,96860.75
2023-01-11T06:53:28.402Z,96862.41
2023-01-11T06:55:57.180Z,96854.19
2023-01-11T06:58:25.034Z,96852.47
2023-01-11T07:00:53.186Z,96862.41
2023-01-11T07:03:24.145Z,96863.50
2023-01-11T07:05:52.305Z,96865.94
2023-01-11T07:08:19.230Z,96865.16
2023-01-11T07:10:46.176Z,96868.66
2023-01-11T07:13:12.634Z,96873.59
2023-01-11T07:15:39.150Z,96861.16
2023-01-11T07:18:05.666Z,96865.25
2023-01-11T07:20:31.999Z,96856.56
2023-01-11T07:22:59.508Z,96872.66
2023-01-11T07:25:27.741Z,96875.44
2023-01-11T07:27:59.410Z,96864.75
2023-01-11T07:30:27.580Z,96859.06
2023-01-11T07:32:54.475Z,96865.06
2023-01-11T07:35:21.246Z,96863.69
2023-01-11T07:37:47.682Z,96865.41
2023-01-11T07:40:16.255Z,96862.88
2023-01-11T07:43:11.952Z,96857.00
2023-01-11T07:45:45.641Z,96853.56
2023-01-11T07:48:13.027Z,96857.00
2023-01-11T07:50:42.830Z,96865.50
2023-01-11T07:53:10.685Z,96879.25
2023-01-11T07:55:38.713Z,96873.59
2023-01-11T07:58:06.507Z,96864.38
2023-01-11T08:00:32.940Z,96870.91
2023-01-11T08:03:00.763Z,96867.50
2023-01-11T08:05:27.272Z,96866.81
2023-01-11T08:07:53.746Z,96861.91
2023-01-11T08:10:20.199Z,96869.72
2023-01-11T08:13:07.192Z,96859.50
2023-01-11T08:15:36.607Z,96847.56
2023-01-11T08:18:05.605Z,96846.16
2023-01-11T08:20:32.090Z,96847.13
2023-01-11T08:23:02.927Z,96852.91
2023-01-11T08:25:29.308Z,96847.19
2023-01-11T08:27:55.682Z,96856.78
2023-01-11T08:30:22.039Z,96862.63
2023-01-11T08:32:48.442Z,96860.34
2023-01-11T08:35:14.892Z,96847.91
2023-01-11T08:37:41.285Z,96846.38
2023-01-11T08:40:08.529Z,96826.28
2023-01-11T08:42:35.173Z,96828.31
2023-01-11T08:45:01.829Z,96827.53
2023-01-11T08:47:28.379Z,96829.13
2023-01-11T08:49:54.878Z,96835.50
2023-01-11T08:52:21.593Z,96830.47
2023-01-11T08:54:48.003Z,96825.34
2023-01-11T08:57:14.369Z,96829.00
2023-01-11T08:59:40.784Z,96834.25
2023-01-11T09:02:07.482Z,96825.00
2023-01-11T09:04:34.065Z,96829.31
2023-01-11T09:07:01.591Z,96829.31
2023-01-11T09:09:27.971Z,96829.38
2023-01-11T09:11:56.353Z,96826.03
2023-01-11T09:14:27.066Z,96827.94
2023-01-11T09:16:54.555Z,96825.41
2023-01-11T09:19:21.877Z,96819.56
2023-01-11T09:21:48.683Z,96824.78
2023-01-11T09:24:15.136Z,96817.41
2023-01-11T09:26:43.368Z,96818.22
2023-01-11T09:29:11.364Z,96816.66
2023-01-11T09:31:37.980Z,96822.00
2023-01-11T09:34:05.369Z,96820.44
2023-01-11T09:36:33.275Z,96817.81
2023-01-11T09:39:01.729Z,96824.78
2023-01-11T09:41:41.791Z,96826.47
2023-01-11T09:44:16.549Z,96832.44
2023-01-11T09:46:48.136Z,96832.38
2023-01-11T09:49:25.030Z,96830.63
2023-01-11T09:51:53.443Z,96824.00
2023-01-11T09:54:27.075Z,96824.91
2023-01-11T09:57:10.431Z,96828.31
2023-01-11T09:59:50.629Z,96815.09
2023-01-11T10:02:35.840Z,96812.72
2023-01-11T10:05:19.482Z,96812.78
2023-01-11T10:18:29.669Z,96788.50
2023-01-11T10:18:39.148Z,96789.72
2023-01-11T10:20:30.680Z,96778.78
2023-01-11T10:23:17.257Z,96776.31
2023-01-11T10:25:51.333Z,96773.06
2023-01-11T10:28:24.980Z,96781.63
2023-01-11T10:31:08.157Z,96777.38
2023-01-11T10:33:46.678Z,96766.38
2023-01-11T10:37:05.676Z,96775.16
2023-01-11T10:40:09.220Z,96768.59
2023-01-11T10:42:46.606Z,96771.41
2023-01-11T10:45:18.583Z,96765.69
2023-01-11T10:48:18.646Z,96761.63
2023-01-11T10:51:01.502Z,96742.53
2023-01-11T10:53:43.436Z,96757.06
2023-01-11T10:56:15.888Z,96754.44
2023-01-11T10:59:17.827Z,96751.97
2023-01-11T11:02:12.837Z,96750.31
2023-01-11T11:05:01.451Z,96743.59
2023-01-11T11:07:54.104Z,96742.03
2023-01-11T11:10:36.473Z,96735.44
2023-01-11T11:13:14.985Z,96729.53
2023-01-11T11:15:56.844Z,96725.50
2023-01-11T11:18:26.156Z,96725.50
2023-01-11T11:20:52.488Z,96711.16
2023-01-11T11:23:23.056Z,96711.16
2023-01-11T11:25:55.046Z,96710.03
2023-01-11T11:28:32.947Z,96706.72
2023-01-11T11:31:03.062Z,96697.44
2023-01-11T11:33:37.618Z,96700.97
2023-01-11T11:36:09.138Z,96703.88
2023-01-11T11:38:38.048Z,96702.41
2023-01-11T11:41:04.528Z,96694.06
2023-01-11T11:43:33.549Z,96691.69
2023-01-11T11:46:18.664Z,96677.13
2023-01-11T11:49:13.291Z,96668.59
2023-01-11T11:51:42.845Z,96662.47
2023-01-11T11:54:32.496Z,96669.91
2023-01-11T11:57:12.529Z,96659.69
2023-01-11T11:59:43.585Z,96662.28
2023-01-11T12:02:24.085Z,96655.63
2023-01-11T12:04:51.540Z,96658.28
2023-01-11T12:07:24.042Z,96654.81
2023-01-11T12:09:56.266Z,96657.47
2023-01-11T12:12:25.890Z,96652.41
2023-01-11T12:15:15.221Z,96652.34
2023-01-11T12:17:42.562Z,96647.44
2023-01-11T12:20:21.133Z,96649.25
2023-01-11T12:22:48.651Z,96647.75
2023-01-11T12:25:15.168Z,96643.72
2023-01-11T12:28:02.024Z,96656.28
2023-01-11T12:31:03.345Z,96662.09
2023-01-11T12:33:47.565Z,96648.63
2023-01-11T12:36:49.867Z,96649.59
2023-01-11T12:39:38.057Z,96642.19
2023-01-11T12:42:11.354Z,96635.53
2023-01-11T12:44:55.357Z,96646.44
2023-01-11T12:47:52.477Z,96633.66
2023-01-11T12:50:25.331Z,96633.59
2023-01-11T12:53:27.957Z,96635.44
2023-01-11T12:56:24.142Z,96632.94
2023-01-11T12:59:35.124Z,96629.59
2023-01-11T13:02:07.492Z,96621.09
2023-01-11T13:04:52.770Z,96629.56
2023-01-11T13:08:07.254Z,96617.97
2023-01-11T13:10:42.979Z,96605.44
2023-01-11T13:13:19.052Z,96612.09
2023-01-11T13:16:14.496Z,96612.19
2023-01-11T13:18:51.016Z,96614.50
2023-01-11T13:21:40.944Z,96609.38
2023-01-11T13:24:15.541Z,96610.25
2023-01-11T13:26:46.854Z,96617.97
2023-01-11T13:29:37.325Z,96608.47
2023-01-11T13:32:08.749Z,96617.69
2023-01-11T13:34:41.355Z,96609.22
2023-01-11T13:37:18.919Z,96608.53
2023-01-11T13:39:54.660Z,96611.91
2023-01-11T13:42:25.134Z,96615.16
2023-01-11T13:45:00.607Z,96604.84
2023-01-11T13:47:30.490Z,96609.22
2023-01-11T13:50:00.563Z,96605.94
2023-01-11T13:52:44.330Z,96605.25
2023-01-11T13:55:40.659Z,96611.06
2023-01-11T13:58:16.626Z,96614.47
2023-01-11T14:00:50.038Z,96614.69
2023-01-11T14:03:35.127Z,96611.16
2023-01-11T14:06:32.054Z,96612.03
2023-01-11T14:09:14.705Z,96610.34
2023-01-11T14:12:03.061Z,96605.28
2023-01-11T14:14:37.608Z,96613.94
2023-01-11T14:17:32.270Z,96612.19
2023-01-11T14:20:26.142Z,96612.25
2023-01-11T14:23:13.292Z,96610.59
2023-01-11T14:25:51.653Z,96610.53
2023-01-11T14:28:50.973Z,96618.84
2023-01-11T14:31:50.569Z,96612.22
2023-01-11T14:34:47.984Z,96614.63
2023-01-11T14:37:34.610Z,96617.97
2023-01-11T14:40:20.088Z,96633.47
2023-01-11T14:43:22.629Z,96619.00
2023-01-11T14:46:09.661Z,96613.66
2023-01-11T14:49:20.797Z,96622.13
2023-01-11T14:51:56.276Z,96616.41
2023-01-11T14:54:27.834Z,96615.72
2023-01-11T14:56:58.548Z,96609.69
2023-01-11T14:59:30.993Z,96615.59
2023-01-11T15:02:03.713Z,96615.59
2023-01-11T15:04:38.566Z,96619.91
2023-01-11T15:07:22.502Z,96618.25
2023-01-11T15:09:53.439Z,96619.09
2023-01-11T15:12:23.056Z,96617.44
2023-01-11T15:15:08.191Z,96618.25
2023-01-11T15:17:53.421Z,96611.34
2023-01-11T15:20:22.047Z,96625.16
2023-01-11T15:23:01.374Z,96623.34
2023-01-11T15:25:33.514Z,96627.63
2023-01-11T15:28:04.514Z,96621.63
2023-01-11T15:30:30.859Z,96622.47
2023-01-11T15:33:19.253Z,96625.81
2023-01-11T15:35:54.952Z,96614.84
2023-01-11T15:38:52.129Z,96623.34
2023-01-11T15:41:48.901Z,96631.84
2023-01-11T15:44:42.584Z,96625.88
2023-01-11T15:47:42.693Z,96633.47
2023-01-11T15:50:35.721Z,96627.59
2023-01-11T15:53:43.605Z,96629.41
2023-01-11T15:56:13.018Z,96631.91
2023-01-11T15:59:12.017Z,96633.47
2023-01-11T16:02:04.102Z,96636.06
2023-01-11T16:04:40.777Z,96646.31
2023-01-11T16:07:34.019Z,96649.72
2023-01-11T16:10:07.627Z,96653.91
2023-01-11T16:13:00.597Z,96654.78
2023-01-11T16:16:03.997Z,96665.03
2023-01-11T16:18:38.784Z,96669.31
2023-01-11T16:21:12.644Z,96678.69
2023-01-11T16:23:39.845Z,96672.66
2023-01-11T16:26:07.593Z,96681.13
2023-01-11T16:28:34.613Z,96681.06
2023-01-11T16:31:04.577Z,96688.63
2023-01-11T16:33:34.596Z,96693.81
2023-01-11T16:36:38.485Z,96694.66
2023-01-11T16:39:11.697Z,96700.53
2023-01-11T16:41:46.331Z,96697.16
2023-01-11T16:44:41.546Z,96695.53
2023-01-11T16:47:14.636Z,96701.41
2023-01-11T16:49:43.284Z,96703.09
2023-01-11T16:52:34.723Z,96699.75
2023-01-11T16:55:03.487Z,96700.53
2023-01-11T16:57:37.130Z,96701.44
2023-01-11T17:00:18.810Z,96708.31
2023-01-11T17:02:48.785Z,96716.66
2023-01-11T17:05:23.831Z,96712.59
2023-01-11T17:07:50.496Z,96717.69
2023-01-11T17:10:24.979Z,96723.72
2023-01-11T17:13:28.717Z,96726.16
2023-01-11T17:16:02.356Z,96726.19
2023-01-11T17:18:28.829Z,96727.00
2023-01-11T17:20:55.293Z,96718.66
2023-01-11T17:23:21.744Z,96722.88
2023-01-11T17:25:55.848Z,96726.28
2023-01-11T17:28:22.360Z,96731.44
2023-01-11T17:30:52.282Z,96741.66
2023-01-11T17:33:29.021Z,96741.75
2023-01-11T17:35:55.676Z,96745.34
2023-01-11T17:38:25.671Z,96748.75
2023-01-11T17:40:56.603Z,96753.75
2023-01-11T17:43:48.676Z,96758.84
2023-01-11T17:46:24.426Z,96758.03
2023-01-11T17:48:56.810Z,96770.84
2023-01-11T17:51:29.029Z,96770.09
2023-01-11T17:53:55.563Z,96777.75
2023-01-11T17:56:37.841Z,96777.75
2023-01-11T17:59:36.610Z,96775.53
2023-01-11T18:02:11.919Z,96790.16
2023-01-11T18:04:38.685Z,96783.47
2023-01-11T18:07:08.879Z,96778.53
2023-01-11T18:09:45.803Z,96777.78
2023-01-11T18:12:14.579Z,96778.97
2023-01-11T18:15:02.766Z,96792.03
2023-01-11T18:17:32.370Z,96792.16
2023-01-11T18:20:00.392Z,96791.78
2023-01-11T18:22:37.085Z,96800.34
2023-01-11T18:25:23.330Z,96802.03
2023-01-11T18:27:50.342Z,96793.63
2023-01-11T18:30:32.235Z,96792.97
2023-01-11T18:33:01.888Z,96799.97
2023-01-11T18:35:29.542Z,96792.50
2023-01-11T18:37:56.550Z,96809.53
2023-01-11T18:40:23.086Z,96814.66
2023-01-11T18:42:52.725Z,96808.03
2023-01-11T18:45:20.167Z,96809.78
2023-01-11T18:47:46.541Z,96815.75
2023-01-11T18:50:13.990Z,96817.59
2023-01-11T18:52:40.727Z,96821.09
2023-01-11T18:55:09.953Z,96820.41
2023-01-11T18:57:36.405Z,96812.69
2023-01-11T19:00:03.958Z,96833.88
2023-01-11T19:02:42.353Z,96832.13
2023-01-11T19:05:14.941Z,96845.00
2023-01-11T19:07:41.492Z,96845.03
2023-01-11T19:10:08.476Z,96856.28
2023-01-11T19:12:34.988Z,96860.78
2023-01-11T19:15:01.412Z,96856.59
2023-01-11T19:17:28.445Z,96859.97
2023-01-11T19:19:54.856Z,96854.00
2023-01-11T19:22:24.573Z,96859.09
2023-01-11T19:24:53.081Z,96870.09
2023-01-11T19:27:19.509Z,96870.03
2023-01-11T19:29:45.925Z,96873.41
2023-01-11T19:32:12.373Z,96883.63
2023-01-11T19:34:39.847Z,96878.53
2023-01-11T19:37:06.389Z,96892.00
2023-01-11T19:39:34.169Z,96884.44
2023-01-11T19:42:02.301Z,96893.72
2023-01-11T19:44:38.712Z,96901.25
2023-01-11T19:47:11.443Z,96901.16
2023-01-11T19:49:40.122Z,96912.81
2023-01-11T19:52:12.196Z,96909.47
2023-01-11T19:54:42.653Z,96910.28
2023-01-11T19:57:14.592Z,96909.50
2023-01-11T19:59:41.333Z,96918.06
2023-01-11T20:02:10.066Z,96923.25
2023-01-11T20:04:37.176Z,96922.34
2023-01-11T20:07:03.769Z,96925.69
2023-01-11T20:09:30.166Z,96924.13
2023-01-11T20:11:58.660Z,96924.88
2023-01-11T20:14:26.528Z,96921.47
2023-01-11T20:16:52.983Z,96926.56
2023-01-11T20:19:19.313Z,96932.38
2023-01-11T20:21:46.737Z,96931.50
2023-01-11T20:24:13.979Z,96935.81
2023-01-11T20:26:41.549Z,96933.97
2023-01-11T20:29:08.000Z,96933.88
2023-01-11T20:31:35.614Z,96933.56
2023-01-11T20:34:11.253Z,96930.00
2023-01-11T20:36:37.979Z,96939.28
2023-01-11T20:39:05.293Z,96947.69
2023-01-11T20:41:46.872Z,96956.00
2023-01-11T20:44:24.843Z,96948.28
2023-01-11T20:46:52.829Z,96957.50
2023-01-11T20:49:21.443Z,96954.25
2023-01-11T20:51:47.954Z,96957.63
2023-01-11T20:54:14.837Z,96969.56
2023-01-11T20:56:41.690Z,96966.16
2023-01-11T20:59:09.206Z,96965.19
2023-01-11T21:01:36.454Z,96964.38
2023-01-11T21:04:06.289Z,96960.97
2023-01-11T21:06:34.155Z,96965.28
2023-01-11T21:09:01.829Z,96962.91
2023-01-11T21:11:30.660Z,96963.84
2023-01-11T21:13:59.212Z,96968.22
2023-01-11T21:16:27.962Z,96969.03
2023-01-11T21:19:02.448Z,96973.13
2023-01-11T21:21:31.112Z,96981.69
2023-01-11T21:23:59.791Z,96975.66
2023-01-11T21:26:27.396Z,96968.16
2023-01-11T21:28:59.225Z,96962.97
2023-01-11T21:31:33.682Z,96981.75
2023-01-11T21:34:00.398Z,96990.13
2023-01-11T21:36:28.841Z,96994.41
2023-01-11T21:38:56.708Z,96987.63
2023-01-11T21:41:44.899Z,97000.63
2023-01-11T21:44:12.973Z,96999.03
2023-01-11T21:46:40.572Z,96994.72
2023-01-11T21:49:07.555Z,96996.41
2023-01-11T21:51:34.537Z,97001.50
2023-01-11T21:54:04.676Z,96999.94
2023-01-11T21:56:31.121Z,97004.13
2023-01-11T21:58:57.504Z,97012.75
2023-01-11T22:01:23.903Z,97018.66
2023-01-11T22:03:50.363Z,97015.94
2023-01-11T22:06:17.169Z,97029.41
2023-01-11T22:08:45.991Z,97019.41
2023-01-11T22:11:14.479Z,97028.88
2023-01-11T22:13:41.677Z,97028.66
2023-01-11T22:16:12.044Z,97037.03
2023-01-11T22:18:40.523Z,97030.16
2023-01-11T22:21:24.771Z,97034.22
2023-01-11T22:23:56.335Z,97040.00
2023-01-11T22:26:23.876Z,97038.09
2023-01-11T22:29:12.133Z,97040.00
2023-01-11T22:31:39.799Z,97042.44
2023-01-11T22:34:06.826Z,97036.59
2023-01-11T22:36:33.496Z,97036.50
2023-01-11T22:38:59.852Z,97044.13
2023-01-11T22:41:26.467Z,97045.56
2023-01-11T22:43:54.354Z,97045.59
2023-01-11T22:46:23.344Z,97049.81
2023-01-11T22:48:50.615Z,97043.81
2023-01-11T22:51:18.786Z,97059.06
2023-01-11T22:53:47.016Z,97058.22
2023-01-11T22:56:15.489Z,97051.56
2023-01-11T22:58:41.889Z,97058.59
2023-01-11T23:01:17.019Z,97059.00
2023-01-11T23:03:45.193Z,97064.91
2023-01-11T23:06:12.149Z,97071.56
2023-01-11T23:08:43.097Z,97071.66
2023-01-11T23:11:35.652Z,97069.88
2023-01-11T23:14:10.272Z,97065.56
2023-01-11T23:16:37.451Z,97076.66
2023-01-11T23:19:05.295Z,97076.75
2023-01-11T23:21:31.701Z,97076.59
2023-01-11T23:24:00.411Z,97073.13
2023-01-11T23:26:26.792Z,97072.19
2023-01-11T23:28:53.209Z,97076.41
2023-01-11T23:31:22.541Z,97081.38
2023-01-11T23:33:51.502Z,97073.56
2023-01-11T23:36:20.509Z,97069.41
2023-01-11T23:38:47.510Z,97074.56
2023-01-11T23:41:34.779Z,97078.66
2023-01-11T23:44:02.190Z,97090.63
2023-01-11T23:46:47.029Z,97098.25
2023-01-11T23:49:16.150Z,97083.00
2023-01-11T23:51:42.955Z,97082.88
2023-01-11T23:54:10.010Z,97080.84
2023-01-11T23:56:37.133Z,97076.63
2023-01-11T23:59:04.521Z,97085.81
